Time;durP1;ratioP1;P1;durP2;ratioP2;P2;SDS_P1;SDS_P2;PMS_P1;PMS_P2;Temp;Humidity;BMP_temperature;BMP_pressure;BME280_temperature;BME280_humidity;BME280_pressure;Samples;Min_cycle;Max_cycle;Signal;HPM_P1;HPM_P2
2021/11/11 00:00:57;;;;;;;;;;;1.30;99.90;;;;;;5138563;27;20034;-76
2021/11/11 00:03:23;;;;;;;62.67;27.40;;;1.30;99.90;;;;;;5138449;27;20282;-76
2021/11/11 00:05:48;;;;;;;;;;;1.40;99.90;;;;;;5157019;27;20030;-76
2021/11/11 00:08:14;;;;;;;67.05;27.27;;;1.40;99.90;;;;;;5157078;27;19907;-76
2021/11/11 00:10:41;;;;;;;;;;;1.40;99.90;;;;;;5137915;27;20033;-76
2021/11/11 00:13:06;;;;;;;238.67;37.87;;;1.40;99.90;;;;;;5138479;27;20617;-76
2021/11/11 00:15:32;;;;;;;;;;;1.40;99.90;;;;;;5138722;27;20271;-77
2021/11/11 00:17:58;;;;;;;125.22;29.20;;;1.50;99.90;;;;;;5156493;27;20005;-76
2021/11/11 00:20:26;;;;;;;108.72;30.08;;;1.40;99.90;;;;;;5157160;27;20053;-76
2021/11/11 00:22:53;;;;;;;53.50;26.42;;;1.40;99.90;;;;;;5138781;27;20023;-76
2021/11/11 00:25:21;;;;;;;67.25;30.92;;;1.40;99.90;;;;;;5158015;27;20031;-76
2021/11/11 00:27:47;;;;;;;68.55;30.60;;;1.40;99.90;;;;;;5157801;27;20019;-77
2021/11/11 00:30:14;;;;;;;;;;;1.40;99.90;;;;;;5139333;27;20087;-75
2021/11/11 00:32:41;;;;;;;69.15;31.02;;;1.50;99.90;;;;;;5135504;27;19947;-76
2021/11/11 00:35:10;;;;;;;79.78;35.35;;;1.50;99.90;;;;;;5136670;27;20875;-76
2021/11/11 00:37:36;;;;;;;71.28;33.03;;;1.60;99.90;;;;;;5136305;27;20034;-76
2021/11/11 00:40:02;;;;;;;;;;;1.60;99.90;;;;;;5137436;27;20027;-76
2021/11/11 00:42:27;;;;;;;75.15;36.78;;;1.70;99.90;;;;;;5155743;27;19907;-76
2021/11/11 00:44:53;;;;;;;;;;;1.80;99.90;;;;;;5138189;27;20398;-77
2021/11/11 00:47:19;;;;;;;66.82;32.63;;;1.90;99.90;;;;;;5152626;27;19910;-76
2021/11/11 00:49:45;;;;;;;;;;;1.90;99.90;;;;;;5134030;27;20015;-77
2021/11/11 00:52:11;;;;;;;59.65;29.08;;;2.00;99.90;;;;;;5133459;27;19950;-77
2021/11/11 00:54:39;;;;;;;49.13;25.63;;;2.00;99.90;;;;;;5132666;27;20143;-77
2021/11/11 00:57:06;;;;;;;46.05;26.30;;;2.00;99.90;;;;;;5151567;27;20565;-76
2021/11/11 00:59:32;;;;;;;48.65;26.23;;;2.00;99.90;;;;;;5132820;27;20069;-77
2021/11/11 01:01:58;;;;;;;;;;;1.90;99.90;;;;;;5134063;27;20023;-76
2021/11/11 01:04:23;;;;;;;41.63;23.73;;;1.90;99.90;;;;;;5132639;27;20273;-76
2021/11/11 01:06:49;;;;;;;;;;;1.90;99.90;;;;;;5132523;27;20145;-76
2021/11/11 01:09:15;;;;;;;35.60;21.10;;;1.80;99.90;;;;;;5132268;27;20491;-77
2021/11/11 01:11:41;;;;;;;;;;;1.90;99.90;;;;;;5133080;27;20038;-76
2021/11/11 01:14:07;;;;;;;42.58;20.77;;;2.00;99.90;;;;;;5150741;27;19986;-76
2021/11/11 01:16:32;;;;;;;;;;;2.10;99.90;;;;;;5152557;27;20179;-77
2021/11/11 01:18:58;;;;;;;44.55;22.67;;;2.00;99.90;;;;;;5132447;27;20669;-78
2021/11/11 01:21:23;;;;;;;;;;;2.00;99.90;;;;;;5151790;27;20494;-76
2021/11/11 01:23:49;;;;;;;42.95;21.40;;;2.10;99.90;;;;;;5132762;27;19907;-78
2021/11/11 01:26:14;;;;;;;;;;;2.10;99.90;;;;;;5133680;27;20175;-77
2021/11/11 01:28:41;;;;;;;41.38;21.25;;;2.20;99.90;;;;;;5132915;27;19911;-77
2021/11/11 01:31:06;;;;;;;40.63;24.27;;;2.20;99.90;;;;;;5133361;27;20027;-76
2021/11/11 01:33:32;;;;;;;;;;;2.40;99.90;;;;;;5133926;27;20057;-76
2021/11/11 01:35:58;;;;;;;29.33;18.80;;;2.40;99.90;;;;;;5133770;27;19910;-77
2021/11/11 01:38:24;;;;;;;;;;;2.60;99.90;;;;;;5152271;27;20035;-77
2021/11/11 01:40:50;;;;;;;28.30;18.35;;;2.80;99.90;;;;;;5132368;27;19907;-76
2021/11/11 01:43:16;;;;;;;25.02;16.65;;;3.20;99.90;;;;;;5130699;27;20031;-77
2021/11/11 01:45:42;;;;;;;;;;;3.50;99.90;;;;;;5132177;27;20083;-76
2021/11/11 01:48:11;;;;;;;21.43;14.43;;;3.80;99.90;;;;;;5149744;27;19907;-76
2021/11/11 01:50:38;;;;;;;22.10;13.77;;;4.00;99.90;;;;;;5131653;27;20026;-77
2021/11/11 01:53:05;;;;;;;22.50;14.15;;;4.00;99.90;;;;;;5130474;27;20482;-76
2021/11/11 01:55:31;;;;;;;21.13;14.23;;;4.10;99.90;;;;;;5149528;27;20430;-76
2021/11/11 01:57:58;;;;;;;23.70;14.65;;;4.00;99.90;;;;;;5131310;27;20118;-77
2021/11/11 02:00:32;;;;;;;28.33;17.52;;;4.00;99.90;;;;;;5120928;27;20023;-76
2021/11/11 02:03:02;;;;;;;32.78;20.52;;;3.90;99.90;;;;;;5110767;27;20062;-76
2021/11/11 02:05:29;;;;;;;27.67;18.27;;;3.80;99.90;;;;;;5110962;27;20030;-76
2021/11/11 02:07:55;;;;;;;31.67;19.58;;;3.50;99.90;;;;;;5130036;27;20039;-76
2021/11/11 02:10:22;;;;;;;;;;;3.30;99.90;;;;;;5130391;27;20041;-76
2021/11/11 02:12:47;;;;;;;32.38;19.63;;;3.10;99.90;;;;;;5111257;27;19903;-77
2021/11/11 02:15:14;;;;;;;;;;;3.00;99.90;;;;;;5112841;27;20035;-76
2021/11/11 02:17:41;;;;;;;32.73;21.67;;;2.80;99.90;;;;;;5124495;27;19919;-77
2021/11/11 02:20:10;;;;;;;27.88;18.23;;;2.60;99.90;;;;;;5130526;27;20034;-76
2021/11/11 02:22:37;;;;;;;27.13;17.60;;;2.40;99.90;;;;;;5128719;27;20038;-77
2021/11/11 02:25:12;;;;;;;28.45;16.73;;;2.30;99.90;;;;;;5130697;27;20027;-76
2021/11/11 02:27:38;;;;;;;26.27;17.88;;;2.20;99.90;;;;;;5128291;27;20417;-77
2021/11/11 02:30:07;;;;;;;29.02;19.05;;;2.00;99.90;;;;;;5128448;27;20034;-77
2021/11/11 02:32:35;;;;;;;28.40;17.40;;;2.00;99.90;;;;;;5128031;27;20023;-76
2021/11/11 02:35:01;;;;;;;28.55;18.17;;;1.90;99.90;;;;;;5128799;27;20178;-76
2021/11/11 02:37:27;;;;;;;;;;;1.90;99.90;;;;;;5128567;27;20163;-75
2021/11/11 02:39:53;;;;;;;23.77;16.23;;;1.90;99.90;;;;;;5128426;27;19907;-76
2021/11/11 02:42:19;;;;;;;29.17;17.55;;;1.90;99.90;;;;;;5129835;27;20110;-76
2021/11/11 02:44:45;;;;;;;;;;;1.80;99.90;;;;;;5130425;27;20165;-77
2021/11/11 02:47:11;;;;;;;26.90;17.70;;;1.70;99.90;;;;;;5130415;27;19935;-75
2021/11/11 02:49:36;;;;;;;;;;;1.70;99.90;;;;;;5128739;27;20026;-75
2021/11/11 02:52:04;;;;;;;32.00;18.85;;;1.70;99.90;;;;;;5128150;27;20023;-77
2021/11/11 02:54:38;;;;;;;28.73;18.00;;;1.70;99.90;;;;;;5130042;27;20023;-76
2021/11/11 02:57:20;;;;;;;30.27;18.30;;;1.70;99.90;;;;;;5128896;27;20072;-75
2021/11/11 02:59:45;;;;;;;30.08;19.05;;;1.60;99.90;;;;;;5128871;27;20407;-75
2021/11/11 03:02:24;;;;;;;;;;;1.60;99.90;;;;;;5129452;27;20033;-76
2021/11/11 03:04:50;;;;;;;30.77;17.42;;;1.50;99.90;;;;;;5128301;27;20335;-76
2021/11/11 03:07:16;;;;;;;32.20;19.75;;;1.50;99.90;;;;;;5129090;27;20113;-77
2021/11/11 03:09:43;;;;;;;;;;;1.40;99.90;;;;;;5130581;27;20102;-77
2021/11/11 03:12:09;;;;;;;49.55;27.58;;;1.50;99.90;;;;;;5129101;27;19934;-76
2021/11/11 03:14:35;;;;;;;48.38;30.27;;;1.50;99.90;;;;;;5129728;27;20029;-75
2021/11/11 03:17:02;;;;;;;45.40;26.42;;;1.50;99.90;;;;;;5129832;27;20090;-76
2021/11/11 03:19:27;;;;;;;51.92;30.98;;;1.40;99.90;;;;;;5129817;28;20126;-76
2021/11/11 03:21:53;;;;;;;;;;;1.50;99.90;;;;;;5129465;28;20613;-77
2021/11/11 03:24:19;;;;;;;46.63;25.25;;;1.50;99.90;;;;;;5130939;28;19947;-76
2021/11/11 03:26:44;;;;;;;;;;;1.40;99.90;;;;;;5131758;28;20023;-77
2021/11/11 03:29:10;;;;;;;42.15;23.83;;;1.40;99.90;;;;;;5128812;27;19954;-76
2021/11/11 03:31:35;;;;;;;;;;;1.40;99.90;;;;;;5128759;28;20023;-77
2021/11/11 03:34:01;;;;;;;48.45;24.48;;;1.40;99.90;;;;;;5126066;28;19914;-76
2021/11/11 03:36:26;;;;;;;;;;;1.30;99.90;;;;;;5127403;28;20024;-77
2021/11/11 03:38:52;;;;;;;70.65;29.92;;;1.40;99.90;;;;;;5126517;28;20370;-77
2021/11/11 03:41:17;;;;;;;;;;;1.40;99.90;;;;;;5128921;27;20020;-76
2021/11/11 03:43:43;;;;;;;66.88;27.33;;;1.40;99.90;;;;;;5126860;28;20375;-76
2021/11/11 03:46:12;;;;;;;;;;;1.50;99.90;;;;;;5128462;28;20403;-75
2021/11/11 03:48:37;;;;;;;53.38;23.27;;;1.50;99.90;;;;;;5128737;27;19904;-76
2021/11/11 03:51:03;;;;;;;;;;;1.50;99.90;;;;;;5129238;27;20038;-76
2021/11/11 03:53:29;;;;;;;46.63;24.75;;;1.50;99.90;;;;;;5128246;27;19908;-76
2021/11/11 03:55:55;;;;;;;;;;;1.50;99.90;;;;;;5127322;28;20031;-76
2021/11/11 03:58:20;;;;;;;45.58;24.35;;;1.60;99.90;;;;;;5128269;27;19919;-75
2021/11/11 04:00:46;;;;;;;;;;;1.70;99.90;;;;;;5129722;28;20072;-75
2021/11/11 04:03:12;;;;;;;56.20;28.40;;;1.80;99.90;;;;;;5127905;28;19903;-75
2021/11/11 04:05:37;;;;;;;;;;;2.00;99.90;;;;;;5129764;27;20052;-76
2021/11/11 04:08:04;;;;;;;46.88;26.42;;;2.20;99.90;;;;;;5130766;27;19917;-76
2021/11/11 04:10:29;;;;;;;49.28;26.10;;;2.40;99.90;;;;;;5131447;27;20031;-76
2021/11/11 04:12:55;;;;;;;;;;;2.60;99.90;;;;;;5133110;27;20092;-76
2021/11/11 04:15:21;;;;;;;36.90;20.23;;;2.80;99.90;;;;;;5133106;27;19917;-75
2021/11/11 04:17:46;;;;;;;;;;;2.90;99.90;;;;;;5150852;27;20666;-76
2021/11/11 04:20:12;;;;;;;40.20;20.63;;;2.80;99.90;;;;;;5153981;27;19907;-76
2021/11/11 04:22:38;;;;;;;;;;;2.90;99.90;;;;;;5153715;27;20019;-77
2021/11/11 04:25:06;;;;;;;40.75;21.83;;;2.90;99.90;;;;;;5134326;27;19907;-76
2021/11/11 04:27:35;;;;;;;39.70;21.60;;;2.80;99.90;;;;;;5134218;27;20038;-76
2021/11/11 04:30:35;;;;;;;34.85;20.23;;;2.80;99.90;;;;;;5134506;27;20023;-76
2021/11/11 04:32:53;;;;;;;36.35;20.05;;;2.80;99.90;;;;;;5149832;27;20039;-76
2021/11/11 04:35:18;;;;;;;;;;;2.80;99.90;;;;;;5135369;27;20408;-76
2021/11/11 04:51:26;;;;;;;39.63;21.83;;;2.90;99.90;;;;;;5095004;27;20489;-76
2021/11/11 05:04:48;;;;;;;64.95;35.70;;;2.60;99.90;;;;;;5152767;27;20065;-76
2021/11/11 05:07:14;;;;;;;;;;;2.60;99.90;;;;;;5154225;27;20038;-77
2021/11/11 05:09:39;;;;;;;57.40;31.20;;;2.60;99.90;;;;;;5134601;27;19907;-76
2021/11/11 05:12:06;;;;;;;;;;;2.60;99.90;;;;;;5153964;27;20023;-77
2021/11/11 05:14:32;;;;;;;;;;;2.50;99.90;;;;;;5135501;27;19939;-75
2021/11/11 05:16:58;;;;;;;39.58;22.52;;;2.50;99.90;;;;;;5152781;27;20295;-76
2021/11/11 05:19:23;;;;;;;;;;;2.50;99.90;;;;;;5135842;27;20038;-76
2021/11/11 05:21:49;;;;;;;39.45;23.73;;;2.50;99.90;;;;;;5152818;27;19907;-76
2021/11/11 05:24:15;;;;;;;;;;;2.50;99.90;;;;;;5134874;27;20069;-76
2021/11/11 05:26:40;;;;;;;49.35;24.58;;;2.50;99.90;;;;;;5151995;27;20397;-77
2021/11/11 05:29:06;;;;;;;;;;;2.40;99.90;;;;;;5135696;27;20095;-76
2021/11/11 05:31:32;;;;;;;31.70;17.02;;;2.40;99.90;;;;;;5134622;27;19907;-76
2021/11/11 05:33:57;;;;;;;;;;;2.40;99.90;;;;;;5135453;27;20130;-76
2021/11/11 05:36:23;;;;;;;34.50;18.60;;;2.40;99.90;;;;;;5133701;27;19987;-77
2021/11/11 05:38:49;;;;;;;;;;;2.40;99.90;;;;;;5134588;27;20046;-77
2021/11/11 05:41:14;;;;;;;25.35;15.32;;;2.50;99.90;;;;;;5134386;27;19979;-76
2021/11/11 05:43:40;;;;;;;;;;;2.50;99.90;;;;;;5154209;27;20030;-75
2021/11/11 05:46:05;;;;;;;26.02;15.88;;;2.60;99.90;;;;;;5134397;27;19903;-76
2021/11/11 05:48:31;;;;;;;;;;;2.60;99.90;;;;;;5138819;27;20051;-77
2021/11/11 05:50:57;;;;;;;23.83;14.73;;;2.90;99.90;;;;;;5134563;27;19903;-78
2021/11/11 05:53:22;;;;;;;;;;;2.60;99.90;;;;;;5143507;27;20018;-79
2021/11/11 05:55:49;;;;;;;31.40;17.92;;;2.60;99.90;;;;;;5160238;27;19903;-77
2021/11/11 05:58:15;;;;;;;29.75;16.63;;;2.60;99.90;;;;;;5164009;27;20051;-81
2021/11/11 06:00:41;;;;;;;;;;;2.50;99.90;;;;;;5173393;27;20173;-81
2021/11/11 06:03:06;;;;;;;25.00;14.27;;;2.60;99.90;;;;;;5156824;27;20302;-80
2021/11/11 06:05:32;;;;;;;;;;;2.60;99.90;;;;;;5158135;27;20038;-82
2021/11/11 06:07:57;;;;;;;32.67;17.02;;;2.50;99.90;;;;;;5155525;27;19910;-82
2021/11/11 06:10:23;;;;;;;;;;;2.50;99.90;;;;;;5173924;27;20103;-82
2021/11/11 06:12:49;;;;;;;31.88;17.77;;;2.60;99.90;;;;;;5173058;27;19903;-81
2021/11/11 06:15:15;;;;;;;;;;;2.60;99.90;;;;;;5173681;27;20031;-82
2021/11/11 06:17:43;;;;;;;33.25;18.88;;;2.90;99.90;;;;;;5156410;27;19979;-81
2021/11/11 06:20:26;;;;;;;34.08;19.20;;;2.70;99.90;;;;;;5134795;27;20068;-83
2021/11/11 06:22:52;;;;;;;42.00;20.60;;;2.80;99.90;;;;;;5135026;27;20030;-82
2021/11/11 06:25:18;;;;;;;;;;;3.20;99.90;;;;;;5123905;27;20392;-82
2021/11/11 06:27:44;;;;;;;35.50;18.00;;;3.60;99.90;;;;;;5153472;27;19903;-82
2021/11/11 06:30:10;;;;;;;;;;;3.90;99.90;;;;;;5138125;27;20027;-82
2021/11/11 06:32:42;;;;;;;31.60;16.73;;;4.40;99.90;;;;;;5139242;27;19899;-81
2021/11/11 06:35:09;;;;;;;34.78;17.52;;;4.50;99.90;;;;;;5140309;27;20026;-82
2021/11/11 06:37:36;;;;;;;34.50;18.60;;;5.40;99.90;;;;;;5140965;27;20047;-82
2021/11/11 06:40:07;;;;;;;21.88;12.18;;;5.80;99.90;;;;;;5159457;27;20040;-81
2021/11/11 06:42:33;;;;;;;15.52;9.23;;;6.20;99.90;;;;;;5141887;27;20012;-81
2021/11/11 06:45:11;;;;;;;;;;;6.60;99.90;;;;;;5142734;27;20061;-81
2021/11/11 06:47:38;;;;;;;51.35;26.45;;;6.90;99.90;;;;;;5142218;27;19929;-82
2021/11/11 06:50:05;;;;;;;108.25;54.88;;;7.00;99.90;;;;;;5160019;27;20075;-82
2021/11/11 06:52:31;;;;;;;72.55;32.67;;;7.00;99.90;;;;;;5141950;27;20036;-82
2021/11/11 06:54:57;;;;;;;66.28;31.75;;;7.10;99.90;;;;;;5142598;27;20021;-81
2021/11/11 06:57:28;;;;;;;;;;;7.20;99.90;;;;;;5142170;27;20031;-82
2021/11/11 06:59:57;;;;;;;63.25;28.80;;;6.90;99.90;;;;;;5136689;27;19922;-80
2021/11/11 07:02:26;;;;;;;57.92;28.58;;;6.70;99.90;;;;;;5138048;27;20034;-80
2021/11/11 07:04:55;;;;;;;59.22;28.27;;;6.70;99.90;;;;;;5140997;27;20037;-81
2021/11/11 07:10:28;;;;;;;46.15;24.52;;;6.70;99.90;;;;;;5156771;27;20041;-81
2021/11/11 07:13:00;;;;;;;41.83;20.15;;;6.40;99.90;;;;;;5122982;28;20011;-80
2021/11/11 07:15:25;;;;;;;30.23;17.15;;;6.40;99.90;;;;;;5156537;27;20019;-80
2021/11/11 07:17:53;;;;;;;22.75;12.27;;;6.40;99.90;;;;;;5175036;27;20034;-81
2021/11/11 07:20:19;;;;;;;19.50;12.63;;;6.30;99.90;;;;;;5159359;27;20016;-80
2021/11/11 07:22:46;;;;;;;;;;;6.30;99.90;;;;;;5160817;27;20029;-81
2021/11/11 07:25:19;;;;;;;31.02;16.73;;;6.30;99.90;;;;;;5161741;27;19899;-82
2021/11/11 07:27:49;;;;;;;31.02;17.65;;;6.30;99.90;;;;;;5161531;27;20019;-82
2021/11/11 07:30:17;;;;;;;24.00;14.35;;;6.60;99.90;;;;;;5162000;27;20086;-79
2021/11/11 07:32:46;;;;;;;21.38;14.52;;;6.10;99.90;;;;;;5159652;27;20027;-79
2021/11/11 07:35:13;;;;;;;21.98;14.60;;;6.20;99.90;;;;;;5159896;27;20011;-80
2021/11/11 07:37:42;;;;;;;25.60;15.88;;;6.20;99.90;;;;;;5159801;27;20086;-80
2021/11/11 07:40:15;;;;;;;20.20;13.40;;;6.20;99.90;;;;;;5160337;27;20025;-81
2021/11/11 07:42:41;;;;;;;20.88;13.65;;;6.10;99.90;;;;;;5158788;27;20086;-81
2021/11/11 07:45:08;;;;;;;19.98;13.90;;;6.00;99.90;;;;;;5153453;27;20098;-80
2021/11/11 07:47:35;;;;;;;21.23;13.95;;;5.90;99.90;;;;;;5154560;27;20113;-79
2021/11/11 07:50:03;;;;;;;22.55;14.23;;;6.00;99.90;;;;;;5165880;27;20017;-80
2021/11/11 07:52:30;;;;;;;31.70;20.35;;;6.00;99.90;;;;;;5164554;27;20028;-81
2021/11/11 07:54:57;;;;;;;35.80;21.52;;;6.10;99.90;;;;;;5166016;27;20041;-82
2021/11/11 07:57:26;;;;;;;32.85;21.55;;;6.00;99.90;;;;;;5165747;27;20007;-80
2021/11/11 07:59:53;;;;;;;44.20;26.80;;;5.90;99.90;;;;;;5164999;27;20026;-79
2021/11/11 08:02:21;;;;;;;43.53;25.75;;;6.00;99.90;;;;;;5183433;27;20007;-80
2021/11/11 08:04:49;;;;;;;42.13;28.48;;;5.80;99.90;;;;;;5164147;27;20011;-81
2021/11/11 08:07:17;;;;;;;43.53;28.23;;;6.00;99.90;;;;;;5164721;27;20028;-81
2021/11/11 08:09:44;;;;;;;40.80;26.00;;;6.10;99.90;;;;;;5166082;27;20520;-82
2021/11/11 08:12:10;;;;;;;36.65;23.30;;;6.10;99.90;;;;;;5165698;27;20034;-80
2021/11/11 08:14:36;;;;;;;;;;;6.20;99.90;;;;;;5166538;27;20015;-81
2021/11/11 08:17:02;;;;;;;33.65;19.40;;;6.20;99.90;;;;;;5166144;27;19970;-81
2021/11/11 08:19:32;;;;;;;30.88;18.13;;;6.30;99.90;;;;;;5183574;27;20027;-81
2021/11/11 08:21:58;;;;;;;27.05;15.77;;;6.30;99.90;;;;;;5165443;27;20026;-81
2021/11/11 08:24:24;;;;;;;;;;;6.40;99.90;;;;;;5166194;27;20035;-82
2021/11/11 08:26:50;;;;;;;25.88;17.42;;;6.50;99.90;;;;;;5161972;27;19895;-81
2021/11/11 08:29:16;;;;;;;;;;;6.60;99.90;;;;;;5165375;27;20023;-82
2021/11/11 08:31:43;;;;;;;30.25;19.80;;;6.70;99.90;;;;;;5163635;27;19914;-80
2021/11/11 08:34:12;;;;;;;31.52;20.52;;;6.80;99.90;;;;;;5164980;27;20027;-80
2021/11/11 08:36:38;;;;;;;32.15;20.95;;;6.80;99.90;;;;;;5164934;27;20014;-81
2021/11/11 08:52:43;;;;;;;31.17;21.75;;;7.10;99.90;;;;;;5055961;28;20034;-80
2021/11/11 08:55:49;;;;;;;28.27;19.00;;;7.00;99.90;;;;;;5042426;28;20105;-81
2021/11/11 09:02:08;;;;;;;30.98;21.55;;;7.30;99.90;;;;;;5039858;28;20037;-82
2021/11/11 09:08:57;;;;;;;25.77;18.33;;;7.70;99.90;;;;;;4981260;28;20054;-82
2021/11/11 09:18:40;;;;;;;35.05;22.55;;;8.30;99.90;;;;;;4901964;29;20044;-80
2021/11/11 09:22:01;;;;;;;49.60;27.70;;;8.50;99.90;;;;;;4881913;29;20056;-81
2021/11/11 09:25:34;;;;;;;35.80;23.63;;;8.70;99.90;;;;;;4887965;29;20033;-82
2021/11/11 09:29:07;;;;;;;32.28;21.33;;;8.70;99.90;;;;;;4885938;29;20033;-81
2021/11/11 10:13:02;;;;;;;10.30;6.85;;;10.40;99.90;;;;;;5844587;23;20032;-81
2021/11/11 10:20:20;;;;;;;10.43;5.22;;;10.90;99.90;;;;;;5019779;28;20049;-82
2021/11/11 10:23:26;;;;;;;8.18;5.32;;;10.80;99.90;;;;;;5010333;28;20019;-81
2021/11/11 10:26:47;;;;;;;25.48;16.30;;;10.90;99.90;;;;;;4996527;28;20021;-81
2021/11/11 10:30:27;;;;;;;7.13;5.03;;;10.70;99.90;;;;;;4957909;28;20026;-80
2021/11/11 10:50:00;;;;;;;7.05;4.50;;;10.50;97.70;;;;;;5278538;23;20057;-79
2021/11/11 10:53:05;;;;;;;7.50;4.90;;;10.50;97.70;;;;;;5004267;28;20054;-79
2021/11/11 10:56:22;;;;;;;6.75;3.95;;;10.50;98.30;;;;;;4997924;28;20053;-79
2021/11/11 10:59:33;;;;;;;6.50;4.57;;;10.60;98.50;;;;;;4976645;28;20053;-80
2021/11/11 11:02:14;;;;;;;8.13;4.60;;;10.60;99.10;;;;;;4983662;28;20051;-80
2021/11/11 11:04:46;;;;;;;16.77;10.82;;;10.70;99.70;;;;;;4996142;28;20041;-80
2021/11/11 11:08:22;;;;;;;20.55;12.60;;;10.70;99.90;;;;;;5000264;28;20030;-80
2021/11/11 11:11:06;;;;;;;16.35;11.18;;;10.80;99.90;;;;;;4934641;28;20099;-81
2021/11/11 11:14:19;;;;;;;17.70;11.13;;;10.80;99.90;;;;;;5002110;28;20094;-80
2021/11/11 11:16:47;;;;;;;14.20;10.45;;;10.70;99.90;;;;;;4999950;28;20051;-80
2021/11/11 11:19:22;;;;;;;23.05;12.23;;;10.70;99.90;;;;;;4999421;28;20023;-80
2021/11/11 11:21:55;;;;;;;19.40;13.70;;;10.70;99.90;;;;;;4982310;28;20058;-81
2021/11/11 11:24:44;;;;;;;12.40;6.30;;;10.70;99.90;;;;;;4978596;28;20069;-81
2021/11/11 11:27:57;;;;;;;7.13;4.43;;;10.70;99.90;;;;;;4996188;28;20023;-80
2021/11/11 11:34:52;;;;;;;10.77;5.88;;;10.70;99.90;;;;;;4958086;29;20026;-81
2021/11/11 12:09:44;;;;;;;42.80;24.45;;;10.50;97.40;;;;;;4828561;29;20050;-80
2021/11/11 16:01:25;;;;;;;30.10;20.45;;;6.80;99.90;;;;;;5035633;28;20057;-76
2021/11/11 16:26:24;;;;;;;96.55;54.25;;;6.50;99.90;;;;;;4986852;28;20053;-83
2021/11/11 16:29:19;;;;;;;55.33;33.95;;;6.40;99.90;;;;;;5015147;28;20038;-81
2021/11/11 16:32:11;;;;;;;35.25;22.15;;;6.40;99.90;;;;;;5000850;28;20033;-83
2021/11/11 16:34:36;;;;;;;29.20;19.58;;;6.30;99.90;;;;;;5005110;28;20110;-82
2021/11/11 16:37:05;;;;;;;;;;;6.40;99.90;;;;;;5005097;28;20010;-81
2021/11/11 16:39:30;;;;;;;35.45;23.10;;;6.40;99.90;;;;;;5021187;28;19918;-81
2021/11/11 16:41:56;;;;;;;;;;;6.70;99.90;;;;;;5021805;28;20015;-82
2021/11/11 16:44:24;;;;;;;36.63;23.00;;;6.40;99.90;;;;;;5021422;28;19894;-80
2021/11/11 16:46:50;;;;;;;27.17;16.95;;;6.40;99.90;;;;;;5022001;28;20054;-82
2021/11/11 16:49:17;;;;;;;29.77;17.98;;;6.40;99.90;;;;;;5005345;28;20045;-80
2021/11/11 16:51:44;;;;;;;58.42;31.70;;;6.20;99.90;;;;;;5021940;28;20074;-81
2021/11/11 16:54:11;;;;;;;32.63;21.80;;;6.10;99.90;;;;;;5022013;28;20022;-81
2021/11/11 16:56:37;;;;;;;40.97;23.33;;;6.10;99.90;;;;;;5022085;28;20046;-80
2021/11/11 16:59:03;;;;;;;;;;;6.00;99.90;;;;;;5022063;28;20050;-82
2021/11/11 17:01:29;;;;;;;42.05;19.67;;;5.90;99.90;;;;;;5020591;28;19921;-83
2021/11/11 17:03:55;;;;;;;27.02;18.30;;;6.00;99.90;;;;;;5021968;28;20030;-81
2021/11/11 17:06:21;;;;;;;;;;;6.20;99.90;;;;;;5022086;28;20057;-82
2021/11/11 17:08:47;;;;;;;32.53;19.35;;;5.80;99.90;;;;;;5004983;28;19909;-80
2021/11/11 17:11:13;;;;;;;20.73;14.82;;;5.80;99.90;;;;;;5004697;28;20037;-81
2021/11/11 17:13:43;;;;;;;18.98;13.60;;;5.70;99.90;;;;;;5004189;28;20021;-81
2021/11/11 17:16:15;;;;;;;25.08;14.43;;;5.90;99.90;;;;;;5020089;28;20078;-79
2021/11/11 17:18:41;;;;;;;19.45;12.10;;;5.60;99.90;;;;;;5002897;28;20020;-81
2021/11/11 17:21:17;;;;;;;;;;;5.90;99.90;;;;;;5020071;28;20045;-81
2021/11/11 17:23:47;;;;;;;26.40;18.85;;;5.60;99.90;;;;;;5001900;28;19933;-80
2021/11/11 17:26:19;;;;;;;24.75;15.38;;;5.50;99.90;;;;;;5004588;28;20015;-82
2021/11/11 17:28:46;;;;;;;29.10;16.02;;;5.60;99.90;;;;;;5004349;28;20030;-81
2021/11/11 17:31:12;;;;;;;21.88;14.57;;;5.70;99.90;;;;;;4999910;28;20038;-80
2021/11/11 17:33:39;;;;;;;;;;;5.30;99.90;;;;;;5002954;28;20057;-80
2021/11/11 17:36:08;;;;;;;23.25;15.48;;;5.30;99.90;;;;;;5016760;28;19897;-82
2021/11/11 17:38:44;;;;;;;21.50;14.85;;;5.30;99.90;;;;;;5004152;28;20057;-81
2021/11/11 17:42:05;;;;;;;22.67;15.23;;;5.50;99.90;;;;;;5020761;28;20057;-81
2021/11/11 17:45:51;;;;;;;21.77;13.57;;;5.40;99.90;;;;;;5011201;28;20034;-81
2021/11/11 18:01:04;;;;;;;14.43;9.80;;;5.30;99.90;;;;;;5086090;28;20887;-81
2021/11/11 18:03:30;;;;;;;16.20;10.27;;;5.40;99.90;;;;;;5081400;28;20092;-81
2021/11/11 18:06:03;;;;;;;;;;;5.20;99.90;;;;;;5079602;28;20033;-80
2021/11/11 18:08:31;;;;;;;48.75;29.70;;;5.10;99.90;;;;;;5077716;28;20081;-78
2021/11/11 18:10:58;;;;;;;29.77;20.10;;;5.10;99.90;;;;;;5071463;28;20039;-79
2021/11/11 18:13:28;;;;;;;22.10;14.98;;;5.00;99.90;;;;;;5068519;28;20039;-78
2021/11/11 18:15:57;;;;;;;22.75;15.38;;;5.00;99.90;;;;;;5068978;28;20127;-78
2021/11/11 18:18:23;;;;;;;23.00;14.77;;;4.90;99.90;;;;;;5073163;28;20032;-79
2021/11/11 18:20:48;;;;;;;;;;;4.80;99.90;;;;;;5077490;28;20036;-79
2021/11/11 18:23:16;;;;;;;22.90;14.02;;;4.80;99.90;;;;;;5073884;28;19955;-79
2021/11/11 18:25:41;;;;;;;25.98;15.52;;;4.90;99.90;;;;;;5075405;28;20235;-80
2021/11/11 18:28:07;;;;;;;;;;;4.70;99.90;;;;;;5076866;28;20056;-81
2021/11/11 18:30:41;;;;;;;36.40;21.98;;;4.60;99.90;;;;;;5076104;28;19917;-79
2021/11/11 18:33:10;;;;;;;40.90;23.13;;;4.50;99.90;;;;;;5076046;28;20044;-80
2021/11/11 18:35:50;;;;;;;42.00;22.88;;;4.50;99.90;;;;;;5068497;28;20040;-78
2021/11/11 18:38:27;;;;;;;29.00;17.15;;;4.50;99.90;;;;;;5077993;28;20029;-81
2021/11/11 18:40:56;;;;;;;19.17;12.40;;;4.50;99.90;;;;;;5076829;28;20100;-80
2021/11/11 18:43:27;;;;;;;19.73;11.68;;;4.50;99.90;;;;;;5082296;28;20021;-80
2021/11/11 18:46:13;;;;;;;21.33;11.48;;;4.60;99.90;;;;;;5077732;28;20095;-80
2021/11/11 18:48:40;;;;;;;23.67;13.55;;;4.60;99.90;;;;;;5079969;28;20020;-80
2021/11/11 18:51:30;;;;;;;31.50;15.40;;;4.60;99.90;;;;;;5079886;28;20041;-81
2021/11/11 18:53:58;;;;;;;39.38;21.00;;;4.60;99.90;;;;;;5084228;28;20068;-81
2021/11/11 18:56:24;;;;;;;56.33;28.38;;;4.40;99.90;;;;;;5089274;28;20017;-81
2021/11/11 18:58:51;;;;;;;68.65;33.92;;;4.30;99.90;;;;;;5085268;28;20021;-79
2021/11/11 19:01:18;;;;;;;58.50;31.52;;;4.30;99.90;;;;;;5076545;28;20097;-81
2021/11/11 19:03:44;;;;;;;78.43;38.92;;;4.20;99.90;;;;;;5070168;28;20072;-81
2021/11/11 19:09:08;;;;;;;60.45;30.08;;;4.10;99.90;;;;;;5071801;28;20032;-82
2021/11/11 19:11:40;;;;;;;53.85;24.88;;;4.10;99.90;;;;;;5067002;28;20025;-80
2021/11/11 19:14:08;;;;;;;46.75;21.58;;;4.10;99.90;;;;;;5071838;28;20063;-80
2021/11/11 20:32:29;;;;;;;22.15;12.90;;;3.50;99.90;;;;;;5019820;28;20025;-84
2021/11/11 20:37:57;;;;;;;17.73;10.60;;;3.90;99.90;;;;;;5015003;28;20006;-82
2021/11/11 20:40:31;;;;;;;12.55;7.80;;;3.70;99.90;;;;;;5002043;28;20007;-82
2021/11/11 20:43:20;;;;;;;10.65;6.47;;;3.80;99.90;;;;;;5018955;28;20119;-83
2021/11/11 20:51:05;;;;;;;16.77;9.55;;;3.90;99.90;;;;;;5019264;28;20038;-83
2021/11/11 21:01:19;;;;;;;22.98;12.27;;;3.70;99.90;;;;;;5011898;28;19890;-79
2021/11/11 21:03:50;;;;;;;24.02;11.93;;;3.70;99.90;;;;;;5016359;28;20034;-83
2021/11/11 21:19:19;;;;;;;16.85;9.35;;;3.60;99.90;;;;;;4960542;29;20034;-84
2021/11/11 21:22:00;;;;;;;19.45;12.15;;;3.60;99.90;;;;;;4943425;29;20060;-81
2021/11/11 21:24:28;;;;;;;23.25;12.85;;;3.60;99.90;;;;;;4955689;29;20099;-80
2021/11/11 21:26:55;;;;;;;24.50;15.20;;;3.30;99.90;;;;;;4936978;29;20039;-79
2021/11/11 21:29:24;;;;;;;31.35;17.45;;;3.50;99.90;;;;;;4935818;29;20079;-79
2021/11/11 21:31:49;;;;;;;38.70;21.55;;;3.40;99.90;;;;;;4929383;29;20102;-79
2021/11/11 21:34:22;;;;;;;;;;;3.40;99.90;;;;;;4959357;29;20066;-80
2021/11/11 21:37:10;;;;;;;28.00;16.95;;;3.40;99.90;;;;;;4958246;29;20526;-81
2021/11/11 21:42:25;;;;;;;33.70;18.45;;;3.40;99.90;;;;;;4959961;29;20053;-82
2021/11/11 21:44:55;;;;;;;22.35;12.98;;;3.40;99.90;;;;;;4944127;29;20035;-83
2021/11/11 21:47:22;;;;;;;22.30;12.73;;;3.50;99.90;;;;;;4944051;29;20027;-83
2021/11/11 21:49:48;;;;;;;19.48;10.30;;;3.50;99.90;;;;;;4959895;29;20062;-83
2021/11/11 21:52:15;;;;;;;;;;;3.60;99.90;;;;;;4959066;29;20024;-83
2021/11/11 21:54:50;;;;;;;15.32;9.02;;;3.60;99.90;;;;;;4959326;29;19899;-82
2021/11/11 22:00:06;;;;;;;;;;;3.40;99.90;;;;;;4956571;29;20015;-81
2021/11/11 22:06:33;;;;;;;15.30;9.57;;;3.60;99.90;;;;;;4953013;29;20558;-80
2021/11/11 22:25:20;;;;;;;9.10;6.47;;;3.50;99.90;;;;;;5006015;28;20074;-82
2021/11/11 22:33:01;;;;;;;23.55;11.15;;;3.60;99.90;;;;;;5018179;28;20028;-82
2021/11/11 22:35:31;;;;;;;33.47;13.85;;;3.50;99.90;;;;;;5001585;28;20014;-82
2021/11/11 22:37:59;;;;;;;28.60;14.65;;;3.50;99.90;;;;;;5004450;28;20014;-84